Portada
METAR-TAF:

METAR-TAF

Aeropuertos :

Aeropuerto Internacional Diori Hamani

Niamey, Níger

latitud: 13-29N, longitud: 002-10E, altitud: 223 m

METAR: falta

Hora: 15:36 (14:36 UTC)

Pronóstico

El informe se hizo hace 27 horas y 36 minutos, a las 11:00 UTC
Pronóstico válido del 23 a las 12 UTC al 24 a las 18 UTC
Viento 8 kt del suroeste
Visibilidad: 6000 m
Probabilidad 40% :
Temporalmente
del 23 a las 14 UTC al 23 a las 20 UTC
Viento 25 kt con dirección variable
Visibilidad: 4000 m
Escasas nubes a una altura de 3000 ft
Escasas nubes a una altura de 4000 ft, Cumulonimbus.
Ventisca alta de polvo

TAF: DRRN 231100Z 2312/2418 22008KT 6000 NSC PROB40 TEMPO 2314/2320 VRB25KT 4000 BLDU TSSHRA FEW030 FEW040CB

Observaciones y pronósticos meteorológicos de más de 4000 aeropuertos (mensajes METAR y TAF).

Los puntos amarillos y rojos representan las estaciones disponibles.

Ponga el ratón en el punto deseado para ver el nombre de la estación.

Haga clic para ver las observaciones y los pronósticos meteorológicos.

Para cambiar el mapa : haga clic en los botones verdes con una cruz de color negro para hacer un zoom, en el botón verde con un guión para alejar o en las flechas verdes para mapas adyacentes.


METAR-TAF: